17°C Temp
10°C Dewpoint
64% Humidity
Temperature
23 KM/H
14 MPH
12 KTS
290°
West North
West

Wind Speed
Clear
Conditions
Pressure 1008.92 (hPa) - 29.79 (in)
Visibility 6.2 (mi) - 10.0 (km)

Current Conditions
UKLI
Location 9(km)
Metar :UKLI 181430Z 29006MPS 250V340 CAVOK 17/10 Q1009 R28/090070 NOSIG
Sat 18th September 17:30 pm

Airport